sensor_id;sensor_type;location;lat;lon;timestamp;temperature;humidity
34833;DHT22;55941;50.800;4.342;2022-07-04T00:02:10;15.90;99.90
34833;DHT22;55941;50.800;4.342;2022-07-04T00:04:36;15.90;99.90
34833;DHT22;55941;50.800;4.342;2022-07-04T00:07:01;15.70;99.90
34833;DHT22;55941;50.800;4.342;2022-07-04T00:09:27;15.60;99.90
34833;DHT22;55941;50.800;4.342;2022-07-04T00:11:53;15.60;99.90
34833;DHT22;55941;50.800;4.342;2022-07-04T00:14:20;15.70;99.90
34833;DHT22;55941;50.800;4.342;2022-07-04T00:16:46;15.60;99.90
34833;DHT22;55941;50.800;4.342;2022-07-04T00:19:12;15.60;99.90
34833;DHT22;55941;50.800;4.342;2022-07-04T00:21:38;15.50;99.90
34833;DHT22;55941;50.800;4.342;2022-07-04T00:24:04;15.60;99.90
34833;DHT22;55941;50.800;4.342;2022-07-04T00:26:30;15.50;99.90
34833;DHT22;55941;50.800;4.342;2022-07-04T00:28:55;15.50;99.90
34833;DHT22;55941;50.800;4.342;2022-07-04T00:31:21;15.50;99.90
34833;DHT22;55941;50.800;4.342;2022-07-04T00:33:47;15.40;99.90
34833;DHT22;55941;50.800;4.342;2022-07-04T00:36:13;15.50;99.90
34833;DHT22;55941;50.800;4.342;2022-07-04T00:38:38;15.40;99.90
34833;DHT22;55941;50.800;4.342;2022-07-04T00:41:04;15.40;99.90
34833;DHT22;55941;50.800;4.342;2022-07-04T00:43:30;15.50;99.90
34833;DHT22;55941;50.800;4.342;2022-07-04T00:45:56;15.40;99.90
34833;DHT22;55941;50.800;4.342;2022-07-04T00:48:22;15.30;99.90
34833;DHT22;55941;50.800;4.342;2022-07-04T00:50:48;15.20;99.90
34833;DHT22;55941;50.800;4.342;2022-07-04T00:53:14;15.40;99.90
34833;DHT22;55941;50.800;4.342;2022-07-04T00:55:41;15.30;99.90
34833;DHT22;55941;50.800;4.342;2022-07-04T00:58:07;15.20;99.90
34833;DHT22;55941;50.800;4.342;2022-07-04T01:00:34;15.20;99.90
34833;DHT22;55941;50.800;4.342;2022-07-04T01:03:00;15.30;99.90
34833;DHT22;55941;50.800;4.342;2022-07-04T01:05:26;15.30;99.90
34833;DHT22;55941;50.800;4.342;2022-07-04T01:07:52;15.10;99.90
34833;DHT22;55941;50.800;4.342;2022-07-04T01:10:18;15.20;99.90
34833;DHT22;55941;50.800;4.342;2022-07-04T01:12:43;15.20;99.90
34833;DHT22;55941;50.800;4.342;2022-07-04T01:15:09;15.10;99.90
34833;DHT22;55941;50.800;4.342;2022-07-04T01:17:35;15.10;99.90
34833;DHT22;55941;50.800;4.342;2022-07-04T01:20:02;15.10;99.90
34833;DHT22;55941;50.800;4.342;2022-07-04T01:22:27;15.00;99.90
34833;DHT22;55941;50.800;4.342;2022-07-04T01:24:53;15.00;99.90
34833;DHT22;55941;50.800;4.342;2022-07-04T01:27:19;15.20;99.90
34833;DHT22;55941;50.800;4.342;2022-07-04T01:29:48;15.10;99.90
34833;DHT22;55941;50.800;4.342;2022-07-04T01:32:14;14.90;99.90
34833;DHT22;55941;50.800;4.342;2022-07-04T01:34:40;14.80;99.90
34833;DHT22;55941;50.800;4.342;2022-07-04T01:37:06;14.80;99.90
34833;DHT22;55941;50.800;4.342;2022-07-04T01:39:32;14.70;99.90
34833;DHT22;55941;50.800;4.342;2022-07-04T01:41:58;14.70;99.90
34833;DHT22;55941;50.800;4.342;2022-07-04T01:44:23;14.50;99.90
34833;DHT22;55941;50.800;4.342;2022-07-04T01:46:49;14.40;99.90
34833;DHT22;55941;50.800;4.342;2022-07-04T01:49:15;14.40;99.90
34833;DHT22;55941;50.800;4.342;2022-07-04T01:51:48;14.40;99.90
34833;DHT22;55941;50.800;4.342;2022-07-04T01:54:15;14.40;99.90
34833;DHT22;55941;50.800;4.342;2022-07-04T01:56:42;14.50;99.90
34833;DHT22;55941;50.800;4.342;2022-07-04T01:59:08;14.60;99.90
34833;DHT22;55941;50.800;4.342;2022-07-04T02:01:34;14.70;99.90
34833;DHT22;55941;50.800;4.342;2022-07-04T02:04:01;14.70;99.90
34833;DHT22;55941;50.800;4.342;2022-07-04T02:06:28;14.70;99.90
34833;DHT22;55941;50.800;4.342;2022-07-04T02:08:54;14.60;99.90
34833;DHT22;55941;50.800;4.342;2022-07-04T02:11:39;14.80;99.90
34833;DHT22;55941;50.800;4.342;2022-07-04T02:14:23;14.90;99.90
34833;DHT22;55941;50.800;4.342;2022-07-04T02:16:49;14.80;99.90
34833;DHT22;55941;50.800;4.342;2022-07-04T02:19:15;14.60;99.90
34833;DHT22;55941;50.800;4.342;2022-07-04T02:21:41;14.50;99.90
34833;DHT22;55941;50.800;4.342;2022-07-04T02:24:06;14.50;99.90
34833;DHT22;55941;50.800;4.342;2022-07-04T02:26:32;14.50;99.90
34833;DHT22;55941;50.800;4.342;2022-07-04T02:28:58;14.40;99.90
34833;DHT22;55941;50.800;4.342;2022-07-04T02:31:24;14.30;99.90
34833;DHT22;55941;50.800;4.342;2022-07-04T02:33:50;14.50;99.90
34833;DHT22;55941;50.800;4.342;2022-07-04T02:36:15;14.40;99.90
34833;DHT22;55941;50.800;4.342;2022-07-04T02:38:41;14.30;99.90
34833;DHT22;55941;50.800;4.342;2022-07-04T02:41:07;14.40;99.90
34833;DHT22;55941;50.800;4.342;2022-07-04T02:43:32;14.40;99.90
34833;DHT22;55941;50.800;4.342;2022-07-04T02:45:58;14.40;99.90
34833;DHT22;55941;50.800;4.342;2022-07-04T02:48:24;14.30;99.90
34833;DHT22;55941;50.800;4.342;2022-07-04T02:50:49;14.30;99.90
34833;DHT22;55941;50.800;4.342;2022-07-04T02:53:15;14.20;99.90
34833;DHT22;55941;50.800;4.342;2022-07-04T02:55:41;14.20;99.90
34833;DHT22;55941;50.800;4.342;2022-07-04T02:58:06;14.30;99.90
34833;DHT22;55941;50.800;4.342;2022-07-04T03:00:32;14.30;99.90
34833;DHT22;55941;50.800;4.342;2022-07-04T03:02:58;14.20;99.90
34833;DHT22;55941;50.800;4.342;2022-07-04T03:05:24;14.10;99.90
34833;DHT22;55941;50.800;4.342;2022-07-04T03:07:50;14.00;99.90
34833;DHT22;55941;50.800;4.342;2022-07-04T03:10:15;14.10;99.90
34833;DHT22;55941;50.800;4.342;2022-07-04T03:12:41;14.00;99.90
34833;DHT22;55941;50.800;4.342;2022-07-04T03:15:07;14.00;99.90
34833;DHT22;55941;50.800;4.342;2022-07-04T03:17:33;14.10;99.90
34833;DHT22;55941;50.800;4.342;2022-07-04T03:20:00;14.10;99.90
34833;DHT22;55941;50.800;4.342;2022-07-04T03:22:26;14.00;99.90
34833;DHT22;55941;50.800;4.342;2022-07-04T03:24:51;13.90;99.90
34833;DHT22;55941;50.800;4.342;2022-07-04T03:27:17;14.00;99.90
34833;DHT22;55941;50.800;4.342;2022-07-04T03:29:43;13.90;99.90
34833;DHT22;55941;50.800;4.342;2022-07-04T03:32:08;14.10;99.90
34833;DHT22;55941;50.800;4.342;2022-07-04T03:34:35;14.10;99.90
34833;DHT22;55941;50.800;4.342;2022-07-04T03:37:01;14.00;99.90
34833;DHT22;55941;50.800;4.342;2022-07-04T03:39:27;13.90;99.90
34833;DHT22;55941;50.800;4.342;2022-07-04T03:41:52;14.10;99.90
34833;DHT22;55941;50.800;4.342;2022-07-04T03:44:18;14.10;99.90
34833;DHT22;55941;50.800;4.342;2022-07-04T03:46:44;14.00;99.90
34833;DHT22;55941;50.800;4.342;2022-07-04T03:49:09;13.80;99.90
34833;DHT22;55941;50.800;4.342;2022-07-04T03:51:35;13.70;99.90
34833;DHT22;55941;50.800;4.342;2022-07-04T03:54:01;13.70;99.90
34833;DHT22;55941;50.800;4.342;2022-07-04T03:56:27;13.60;99.90
34833;DHT22;55941;50.800;4.342;2022-07-04T03:58:53;13.60;99.90
34833;DHT22;55941;50.800;4.342;2022-07-04T04:01:19;13.60;99.90
34833;DHT22;55941;50.800;4.342;2022-07-04T04:03:45;13.60;99.90
34833;DHT22;55941;50.800;4.342;2022-07-04T04:06:30;13.60;99.90
34833;DHT22;55941;50.800;4.342;2022-07-04T04:08:56;13.70;99.90
34833;DHT22;55941;50.800;4.342;2022-07-04T04:11:22;13.80;99.90
34833;DHT22;55941;50.800;4.342;2022-07-04T04:13:48;14.00;99.90
34833;DHT22;55941;50.800;4.342;2022-07-04T04:16:14;14.00;99.90
34833;DHT22;55941;50.800;4.342;2022-07-04T04:18:40;14.10;99.90
34833;DHT22;55941;50.800;4.342;2022-07-04T04:21:06;14.10;99.90
34833;DHT22;55941;50.800;4.342;2022-07-04T04:23:32;14.10;99.90
34833;DHT22;55941;50.800;4.342;2022-07-04T04:25:57;14.10;99.90
34833;DHT22;55941;50.800;4.342;2022-07-04T04:28:23;14.10;99.90
34833;DHT22;55941;50.800;4.342;2022-07-04T04:30:52;14.10;99.90
34833;DHT22;55941;50.800;4.342;2022-07-04T04:33:18;14.20;99.90
34833;DHT22;55941;50.800;4.342;2022-07-04T04:35:43;14.20;99.90
34833;DHT22;55941;50.800;4.342;2022-07-04T04:38:09;14.30;99.90
34833;DHT22;55941;50.800;4.342;2022-07-04T04:40:35;14.20;99.90
34833;DHT22;55941;50.800;4.342;2022-07-04T04:43:01;14.20;99.90
34833;DHT22;55941;50.800;4.342;2022-07-04T04:45:26;14.30;99.90
34833;DHT22;55941;50.800;4.342;2022-07-04T04:47:52;14.30;99.90
34833;DHT22;55941;50.800;4.342;2022-07-04T04:50:20;14.30;99.90
34833;DHT22;55941;50.800;4.342;2022-07-04T04:52:46;14.30;99.90
34833;DHT22;55941;50.800;4.342;2022-07-04T04:55:11;14.30;99.90
34833;DHT22;55941;50.800;4.342;2022-07-04T04:57:37;14.20;99.90
34833;DHT22;55941;50.800;4.342;2022-07-04T05:00:04;14.30;99.90
34833;DHT22;55941;50.800;4.342;2022-07-04T05:02:30;14.20;99.90
34833;DHT22;55941;50.800;4.342;2022-07-04T05:04:56;14.40;99.90
34833;DHT22;55941;50.800;4.342;2022-07-04T05:07:22;14.50;99.90
34833;DHT22;55941;50.800;4.342;2022-07-04T05:09:48;14.90;99.90
34833;DHT22;55941;50.800;4.342;2022-07-04T05:12:13;15.00;99.90
34833;DHT22;55941;50.800;4.342;2022-07-04T05:14:39;15.10;99.90
34833;DHT22;55941;50.800;4.342;2022-07-04T05:17:05;15.30;99.90
34833;DHT22;55941;50.800;4.342;2022-07-04T05:19:30;15.50;99.90
34833;DHT22;55941;50.800;4.342;2022-07-04T05:21:56;15.70;99.90
34833;DHT22;55941;50.800;4.342;2022-07-04T05:24:22;15.70;99.90
34833;DHT22;55941;50.800;4.342;2022-07-04T05:26:48;15.80;99.90
34833;DHT22;55941;50.800;4.342;2022-07-04T05:29:13;16.00;99.90
34833;DHT22;55941;50.800;4.342;2022-07-04T05:31:39;16.20;99.90
34833;DHT22;55941;50.800;4.342;2022-07-04T05:34:05;16.40;99.90
34833;DHT22;55941;50.800;4.342;2022-07-04T05:36:31;16.70;99.90
34833;DHT22;55941;50.800;4.342;2022-07-04T05:38:57;16.80;99.90
34833;DHT22;55941;50.800;4.342;2022-07-04T05:41:24;16.90;99.90
34833;DHT22;55941;50.800;4.342;2022-07-04T05:43:50;16.60;99.90
34833;DHT22;55941;50.800;4.342;2022-07-04T05:46:16;16.50;99.90
34833;DHT22;55941;50.800;4.342;2022-07-04T05:48:42;16.50;99.90
34833;DHT22;55941;50.800;4.342;2022-07-04T05:51:08;16.50;99.90
34833;DHT22;55941;50.800;4.342;2022-07-04T05:53:34;16.40;99.90
34833;DHT22;55941;50.800;4.342;2022-07-04T05:56:00;16.40;99.90
34833;DHT22;55941;50.800;4.342;2022-07-04T05:58:25;16.30;99.90
34833;DHT22;55941;50.800;4.342;2022-07-04T06:00:51;16.20;99.90
34833;DHT22;55941;50.800;4.342;2022-07-04T06:03:17;16.10;99.90
34833;DHT22;55941;50.800;4.342;2022-07-04T06:05:43;16.20;99.90
34833;DHT22;55941;50.800;4.342;2022-07-04T06:08:08;16.30;99.90
34833;DHT22;55941;50.800;4.342;2022-07-04T06:10:34;16.60;99.90
34833;DHT22;55941;50.800;4.342;2022-07-04T06:13:00;16.60;99.90
34833;DHT22;55941;50.800;4.342;2022-07-04T06:15:25;16.60;99.90
34833;DHT22;55941;50.800;4.342;2022-07-04T06:17:51;16.50;99.90
34833;DHT22;55941;50.800;4.342;2022-07-04T06:20:17;16.50;99.90
34833;DHT22;55941;50.800;4.342;2022-07-04T06:22:48;16.40;99.90
34833;DHT22;55941;50.800;4.342;2022-07-04T06:25:18;16.50;99.90
34833;DHT22;55941;50.800;4.342;2022-07-04T06:27:46;16.50;99.90
34833;DHT22;55941;50.800;4.342;2022-07-04T06:30:14;16.40;99.90
34833;DHT22;55941;50.800;4.342;2022-07-04T06:32:48;16.50;99.90
34833;DHT22;55941;50.800;4.342;2022-07-04T06:35:16;16.80;99.90
34833;DHT22;55941;50.800;4.342;2022-07-04T06:38:01;17.00;99.90
34833;DHT22;55941;50.800;4.342;2022-07-04T06:40:27;17.00;99.90
34833;DHT22;55941;50.800;4.342;2022-07-04T06:42:52;17.10;99.90
34833;DHT22;55941;50.800;4.342;2022-07-04T06:45:19;17.20;99.90
34833;DHT22;55941;50.800;4.342;2022-07-04T06:47:45;17.30;99.90
34833;DHT22;55941;50.800;4.342;2022-07-04T06:50:11;17.30;99.90
34833;DHT22;55941;50.800;4.342;2022-07-04T06:52:37;17.60;99.90
34833;DHT22;55941;50.800;4.342;2022-07-04T06:55:04;17.70;99.90
34833;DHT22;55941;50.800;4.342;2022-07-04T06:57:31;17.50;99.90
34833;DHT22;55941;50.800;4.342;2022-07-04T06:59:56;17.60;99.90
34833;DHT22;55941;50.800;4.342;2022-07-04T07:02:22;17.50;99.90
34833;DHT22;55941;50.800;4.342;2022-07-04T07:04:48;17.70;99.90
34833;DHT22;55941;50.800;4.342;2022-07-04T07:07:14;17.80;99.90
34833;DHT22;55941;50.800;4.342;2022-07-04T07:09:40;17.70;99.90
34833;DHT22;55941;50.800;4.342;2022-07-04T07:12:06;17.70;99.90
34833;DHT22;55941;50.800;4.342;2022-07-04T07:14:31;17.90;99.90
34833;DHT22;55941;50.800;4.342;2022-07-04T07:16:57;17.90;99.90
34833;DHT22;55941;50.800;4.342;2022-07-04T07:19:23;17.90;99.90
34833;DHT22;55941;50.800;4.342;2022-07-04T07:21:49;18.00;99.90
34833;DHT22;55941;50.800;4.342;2022-07-04T07:24:15;18.20;99.90
34833;DHT22;55941;50.800;4.342;2022-07-04T07:26:41;18.10;99.90
34833;DHT22;55941;50.800;4.342;2022-07-04T07:29:07;18.20;99.90
34833;DHT22;55941;50.800;4.342;2022-07-04T07:31:33;18.30;99.90
34833;DHT22;55941;50.800;4.342;2022-07-04T07:34:02;18.40;99.90
34833;DHT22;55941;50.800;4.342;2022-07-04T07:36:27;18.50;99.90
34833;DHT22;55941;50.800;4.342;2022-07-04T07:38:53;18.70;99.90
34833;DHT22;55941;50.800;4.342;2022-07-04T07:41:21;18.90;99.90
34833;DHT22;55941;50.800;4.342;2022-07-04T07:43:47;18.90;99.70
34833;DHT22;55941;50.800;4.342;2022-07-04T07:46:13;19.00;99.90
34833;DHT22;55941;50.800;4.342;2022-07-04T07:48:38;18.90;99.90
34833;DHT22;55941;50.800;4.342;2022-07-04T07:51:04;18.90;99.90
34833;DHT22;55941;50.800;4.342;2022-07-04T07:53:30;19.00;99.90
34833;DHT22;55941;50.800;4.342;2022-07-04T07:55:55;19.20;99.90
34833;DHT22;55941;50.800;4.342;2022-07-04T07:58:21;19.20;99.90
34833;DHT22;55941;50.800;4.342;2022-07-04T08:00:47;19.30;99.90
34833;DHT22;55941;50.800;4.342;2022-07-04T08:03:13;19.50;99.40
34833;DHT22;55941;50.800;4.342;2022-07-04T08:05:57;19.60;99.40
34833;DHT22;55941;50.800;4.342;2022-07-04T08:08:23;19.80;98.70
34833;DHT22;55941;50.800;4.342;2022-07-04T08:10:49;19.70;98.80
34833;DHT22;55941;50.800;4.342;2022-07-04T08:13:16;19.70;98.50
34833;DHT22;55941;50.800;4.342;2022-07-04T08:15:41;19.80;98.20
34833;DHT22;55941;50.800;4.342;2022-07-04T08:18:07;19.80;97.70
34833;DHT22;55941;50.800;4.342;2022-07-04T08:20:34;19.80;97.90
34833;DHT22;55941;50.800;4.342;2022-07-04T08:22:59;19.80;97.20
34833;DHT22;55941;50.800;4.342;2022-07-04T08:25:25;19.90;96.70
34833;DHT22;55941;50.800;4.342;2022-07-04T08:27:51;19.90;96.10
34833;DHT22;55941;50.800;4.342;2022-07-04T08:30:17;19.90;95.50
34833;DHT22;55941;50.800;4.342;2022-07-04T08:32:43;19.90;95.90
34833;DHT22;55941;50.800;4.342;2022-07-04T08:35:09;19.80;95.10
34833;DHT22;55941;50.800;4.342;2022-07-04T08:37:34;19.90;95.00
34833;DHT22;55941;50.800;4.342;2022-07-04T08:40:01;19.90;94.40
34833;DHT22;55941;50.800;4.342;2022-07-04T08:42:35;19.90;94.60
34833;DHT22;55941;50.800;4.342;2022-07-04T08:45:02;20.00;95.50
34833;DHT22;55941;50.800;4.342;2022-07-04T08:47:33;20.00;95.80
34833;DHT22;55941;50.800;4.342;2022-07-04T08:50:12;20.10;95.00
34833;DHT22;55941;50.800;4.342;2022-07-04T08:52:43;20.20;94.40
34833;DHT22;55941;50.800;4.342;2022-07-04T08:55:12;20.30;91.30
34833;DHT22;55941;50.800;4.342;2022-07-04T08:57:57;20.40;90.50
34833;DHT22;55941;50.800;4.342;2022-07-04T09:00:43;20.50;91.00
34833;DHT22;55941;50.800;4.342;2022-07-04T09:03:09;20.50;91.40
34833;DHT22;55941;50.800;4.342;2022-07-04T09:05:35;20.50;90.60
34833;DHT22;55941;50.800;4.342;2022-07-04T09:08:03;20.70;91.10
34833;DHT22;55941;50.800;4.342;2022-07-04T09:10:30;20.70;91.20
34833;DHT22;55941;50.800;4.342;2022-07-04T09:12:56;20.70;91.60
34833;DHT22;55941;50.800;4.342;2022-07-04T09:15:22;20.70;91.30
34833;DHT22;55941;50.800;4.342;2022-07-04T09:17:48;20.70;91.00
34833;DHT22;55941;50.800;4.342;2022-07-04T09:20:19;20.70;90.70
34833;DHT22;55941;50.800;4.342;2022-07-04T09:22:46;20.70;89.30
34833;DHT22;55941;50.800;4.342;2022-07-04T09:25:12;20.90;90.50
34833;DHT22;55941;50.800;4.342;2022-07-04T09:27:43;21.10;89.60
34833;DHT22;55941;50.800;4.342;2022-07-04T09:30:14;21.10;90.00
34833;DHT22;55941;50.800;4.342;2022-07-04T09:32:42;21.20;90.00
34833;DHT22;55941;50.800;4.342;2022-07-04T09:35:13;21.00;90.40
34833;DHT22;55941;50.800;4.342;2022-07-04T09:37:45;21.10;90.40
34833;DHT22;55941;50.800;4.342;2022-07-04T09:40:32;21.30;88.80
34833;DHT22;55941;50.800;4.342;2022-07-04T09:43:00;21.40;88.50
34833;DHT22;55941;50.800;4.342;2022-07-04T09:45:28;21.60;86.20
34833;DHT22;55941;50.800;4.342;2022-07-04T09:47:57;21.50;85.40
34833;DHT22;55941;50.800;4.342;2022-07-04T09:50:25;21.50;85.80
34833;DHT22;55941;50.800;4.342;2022-07-04T09:57:56;21.60;86.30
34833;DHT22;55941;50.800;4.342;2022-07-04T10:00:31;21.60;86.10
34833;DHT22;55941;50.800;4.342;2022-07-04T10:03:15;21.80;85.90
34833;DHT22;55941;50.800;4.342;2022-07-04T10:05:41;21.80;84.00
34833;DHT22;55941;50.800;4.342;2022-07-04T10:08:07;21.90;82.80
34833;DHT22;55941;50.800;4.342;2022-07-04T10:10:35;22.00;80.70
34833;DHT22;55941;50.800;4.342;2022-07-04T10:13:06;21.90;79.90
34833;DHT22;55941;50.800;4.342;2022-07-04T10:15:34;22.10;79.60
34833;DHT22;55941;50.800;4.342;2022-07-04T10:18:00;22.10;80.10
34833;DHT22;55941;50.800;4.342;2022-07-04T10:20:26;22.00;79.20
34833;DHT22;55941;50.800;4.342;2022-07-04T10:22:52;22.00;78.30
34833;DHT22;55941;50.800;4.342;2022-07-04T10:25:18;22.00;75.10
34833;DHT22;55941;50.800;4.342;2022-07-04T10:27:44;22.10;76.90
34833;DHT22;55941;50.800;4.342;2022-07-04T10:30:13;21.90;74.00
34833;DHT22;55941;50.800;4.342;2022-07-04T10:32:43;22.10;76.80
34833;DHT22;55941;50.800;4.342;2022-07-04T10:35:13;22.30;77.50
34833;DHT22;55941;50.800;4.342;2022-07-04T10:38:01;22.50;75.30
34833;DHT22;55941;50.800;4.342;2022-07-04T10:40:46;22.40;75.40
34833;DHT22;55941;50.800;4.342;2022-07-04T10:51:39;22.80;77.60
34833;DHT22;55941;50.800;4.342;2022-07-04T10:54:09;22.90;77.70
34833;DHT22;55941;50.800;4.342;2022-07-04T10:59:17;23.20;78.80
34833;DHT22;55941;50.800;4.342;2022-07-04T11:01:51;23.20;77.30
34833;DHT22;55941;50.800;4.342;2022-07-04T11:04:55;23.20;75.60
34833;DHT22;55941;50.800;4.342;2022-07-04T11:07:54;23.40;74.00
34833;DHT22;55941;50.800;4.342;2022-07-04T11:17:50;23.90;72.50
34833;DHT22;55941;50.800;4.342;2022-07-04T11:20:18;24.00;70.20
34833;DHT22;55941;50.800;4.342;2022-07-04T11:22:44;24.30;70.50
34833;DHT22;55941;50.800;4.342;2022-07-04T11:25:13;24.30;69.10
34833;DHT22;55941;50.800;4.342;2022-07-04T11:27:39;24.40;69.30
34833;DHT22;55941;50.800;4.342;2022-07-04T11:30:06;24.40;68.50
34833;DHT22;55941;50.800;4.342;2022-07-04T11:32:33;24.60;68.40
34833;DHT22;55941;50.800;4.342;2022-07-04T11:35:00;24.70;68.20
34833;DHT22;55941;50.800;4.342;2022-07-04T11:37:26;24.60;68.00
34833;DHT22;55941;50.800;4.342;2022-07-04T11:39:53;24.60;67.50
34833;DHT22;55941;50.800;4.342;2022-07-04T11:42:38;24.70;67.50
34833;DHT22;55941;50.800;4.342;2022-07-04T11:45:22;25.10;66.90
34833;DHT22;55941;50.800;4.342;2022-07-04T11:47:48;25.70;64.80
34833;DHT22;55941;50.800;4.342;2022-07-04T11:50:15;26.10;62.30
34833;DHT22;55941;50.800;4.342;2022-07-04T11:52:48;26.00;63.00
34833;DHT22;55941;50.800;4.342;2022-07-04T11:55:17;25.90;62.00
34833;DHT22;55941;50.800;4.342;2022-07-04T11:57:46;25.50;61.40
34833;DHT22;55941;50.800;4.342;2022-07-04T12:00:14;25.20;63.70
34833;DHT22;55941;50.800;4.342;2022-07-04T12:02:41;24.90;65.30
34833;DHT22;55941;50.800;4.342;2022-07-04T12:05:09;25.10;64.40
34833;DHT22;55941;50.800;4.342;2022-07-04T12:07:37;25.20;62.60
34833;DHT22;55941;50.800;4.342;2022-07-04T12:10:22;25.70;64.50
34833;DHT22;55941;50.800;4.342;2022-07-04T12:13:05;26.60;63.20
34833;DHT22;55941;50.800;4.342;2022-07-04T12:15:43;27.10;61.00
34833;DHT22;55941;50.800;4.342;2022-07-04T12:20:46;27.00;60.00
34833;DHT22;55941;50.800;4.342;2022-07-04T12:23:12;27.20;58.80
34833;DHT22;55941;50.800;4.342;2022-07-04T12:25:38;27.80;58.70
34833;DHT22;55941;50.800;4.342;2022-07-04T12:30:33;27.90;55.10
34833;DHT22;55941;50.800;4.342;2022-07-04T12:33:07;27.80;55.70
34833;DHT22;55941;50.800;4.342;2022-07-04T12:35:47;27.70;55.70
34833;DHT22;55941;50.800;4.342;2022-07-04T12:38:18;28.10;54.70
34833;DHT22;55941;50.800;4.342;2022-07-04T12:43:25;28.70;52.60
34833;DHT22;55941;50.800;4.342;2022-07-04T12:45:53;29.00;52.10
34833;DHT22;55941;50.800;4.342;2022-07-04T12:48:25;29.90;51.50
34833;DHT22;55941;50.800;4.342;2022-07-04T12:50:51;30.20;50.00
34833;DHT22;55941;50.800;4.342;2022-07-04T12:53:18;30.30;46.10
34833;DHT22;55941;50.800;4.342;2022-07-04T12:55:45;30.60;46.70
34833;DHT22;55941;50.800;4.342;2022-07-04T12:58:11;30.70;47.00
34833;DHT22;55941;50.800;4.342;2022-07-04T13:00:37;30.30;48.20
34833;DHT22;55941;50.800;4.342;2022-07-04T13:03:04;30.50;47.80
34833;DHT22;55941;50.800;4.342;2022-07-04T13:05:30;30.40;48.50
34833;DHT22;55941;50.800;4.342;2022-07-04T13:07:56;30.20;47.50
34833;DHT22;55941;50.800;4.342;2022-07-04T13:10:22;30.50;44.60
34833;DHT22;55941;50.800;4.342;2022-07-04T13:12:47;30.30;44.80
34833;DHT22;55941;50.800;4.342;2022-07-04T13:15:14;30.30;45.20
34833;DHT22;55941;50.800;4.342;2022-07-04T13:17:40;30.30;44.20
34833;DHT22;55941;50.800;4.342;2022-07-04T13:20:06;29.70;45.70
34833;DHT22;55941;50.800;4.342;2022-07-04T13:22:32;29.10;46.30
34833;DHT22;55941;50.800;4.342;2022-07-04T13:24:58;28.10;47.50
34833;DHT22;55941;50.800;4.342;2022-07-04T13:27:26;28.10;47.60
34833;DHT22;55941;50.800;4.342;2022-07-04T13:29:52;28.40;47.20
34833;DHT22;55941;50.800;4.342;2022-07-04T13:32:17;28.80;45.20
34833;DHT22;55941;50.800;4.342;2022-07-04T13:34:43;28.60;44.90
34833;DHT22;55941;50.800;4.342;2022-07-04T13:37:09;29.00;44.60
34833;DHT22;55941;50.800;4.342;2022-07-04T13:39:34;29.40;45.90
34833;DHT22;55941;50.800;4.342;2022-07-04T13:42:00;30.60;43.40
34833;DHT22;55941;50.800;4.342;2022-07-04T13:44:27;31.20;42.60
34833;DHT22;55941;50.800;4.342;2022-07-04T13:46:52;31.60;41.80
34833;DHT22;55941;50.800;4.342;2022-07-04T13:49:18;31.80;42.10
34833;DHT22;55941;50.800;4.342;2022-07-04T13:51:44;32.00;39.90
34833;DHT22;55941;50.800;4.342;2022-07-04T13:54:10;32.50;39.70
34833;DHT22;55941;50.800;4.342;2022-07-04T13:56:36;32.40;39.10
34833;DHT22;55941;50.800;4.342;2022-07-04T13:59:02;31.60;39.30
34833;DHT22;55941;50.800;4.342;2022-07-04T14:01:28;31.10;40.10
34833;DHT22;55941;50.800;4.342;2022-07-04T14:03:54;30.90;41.30
34833;DHT22;55941;50.800;4.342;2022-07-04T14:06:20;30.90;39.10
34833;DHT22;55941;50.800;4.342;2022-07-04T14:08:45;30.40;40.90
34833;DHT22;55941;50.800;4.342;2022-07-04T14:11:11;30.60;42.20
34833;DHT22;55941;50.800;4.342;2022-07-04T14:13:38;31.20;40.40
34833;DHT22;55941;50.800;4.342;2022-07-04T14:16:05;32.10;39.30
34833;DHT22;55941;50.800;4.342;2022-07-04T14:18:32;32.90;38.00
34833;DHT22;55941;50.800;4.342;2022-07-04T14:20:57;32.70;37.90
34833;DHT22;55941;50.800;4.342;2022-07-04T14:23:23;33.10;37.40
34833;DHT22;55941;50.800;4.342;2022-07-04T14:26:14;33.40;36.20
34833;DHT22;55941;50.800;4.342;2022-07-04T14:28:41;33.90;35.90
34833;DHT22;55941;50.800;4.342;2022-07-04T14:31:08;33.70;36.30
34833;DHT22;55941;50.800;4.342;2022-07-04T14:33:33;32.50;36.50
34833;DHT22;55941;50.800;4.342;2022-07-04T14:36:03;30.90;39.20
34833;DHT22;55941;50.800;4.342;2022-07-04T14:38:29;30.30;40.60
34833;DHT22;55941;50.800;4.342;2022-07-04T14:40:54;30.00;41.70
34833;DHT22;55941;50.800;4.342;2022-07-04T14:43:20;30.30;41.80
34833;DHT22;55941;50.800;4.342;2022-07-04T14:45:46;30.70;40.80
34833;DHT22;55941;50.800;4.342;2022-07-04T14:48:15;30.70;39.70
34833;DHT22;55941;50.800;4.342;2022-07-04T14:50:42;30.20;40.90
34833;DHT22;55941;50.800;4.342;2022-07-04T14:53:08;30.20;41.20
34833;DHT22;55941;50.800;4.342;2022-07-04T14:55:34;30.20;40.60
34833;DHT22;55941;50.800;4.342;2022-07-04T14:58:00;30.00;41.30
34833;DHT22;55941;50.800;4.342;2022-07-04T15:00:26;30.10;40.90
34833;DHT22;55941;50.800;4.342;2022-07-04T15:02:52;30.40;40.70
34833;DHT22;55941;50.800;4.342;2022-07-04T15:05:18;30.60;40.40
34833;DHT22;55941;50.800;4.342;2022-07-04T15:07:44;31.60;39.40
34833;DHT22;55941;50.800;4.342;2022-07-04T15:10:09;32.20;37.90
34833;DHT22;55941;50.800;4.342;2022-07-04T15:12:35;32.10;38.40
34833;DHT22;55941;50.800;4.342;2022-07-04T15:15:01;32.20;38.50
34833;DHT22;55941;50.800;4.342;2022-07-04T15:17:27;32.80;37.80
34833;DHT22;55941;50.800;4.342;2022-07-04T15:19:53;33.50;36.40
34833;DHT22;55941;50.800;4.342;2022-07-04T15:22:37;34.40;35.30
34833;DHT22;55941;50.800;4.342;2022-07-04T15:25:21;35.20;33.50
34833;DHT22;55941;50.800;4.342;2022-07-04T15:27:47;35.50;32.30
34833;DHT22;55941;50.800;4.342;2022-07-04T15:30:13;35.20;32.60
34833;DHT22;55941;50.800;4.342;2022-07-04T15:32:38;35.10;32.30
34833;DHT22;55941;50.800;4.342;2022-07-04T15:35:04;35.40;33.40
34833;DHT22;55941;50.800;4.342;2022-07-04T15:37:30;35.90;32.70
34833;DHT22;55941;50.800;4.342;2022-07-04T15:39:56;35.60;32.50
34833;DHT22;55941;50.800;4.342;2022-07-04T15:42:23;35.90;32.50
34833;DHT22;55941;50.800;4.342;2022-07-04T15:44:48;36.00;32.30
34833;DHT22;55941;50.800;4.342;2022-07-04T15:47:15;36.00;32.10
34833;DHT22;55941;50.800;4.342;2022-07-04T15:49:41;36.50;31.70
34833;DHT22;55941;50.800;4.342;2022-07-04T15:52:06;37.10;31.80
34833;DHT22;55941;50.800;4.342;2022-07-04T15:54:34;37.00;31.90
34833;DHT22;55941;50.800;4.342;2022-07-04T15:57:00;36.60;31.00
34833;DHT22;55941;50.800;4.342;2022-07-04T15:59:26;36.40;32.10
34833;DHT22;55941;50.800;4.342;2022-07-04T16:01:53;35.80;31.80
34833;DHT22;55941;50.800;4.342;2022-07-04T16:04:19;34.80;32.40